Time;durP1;ratioP1;P1;durP2;ratioP2;P2;SDS_P1;SDS_P2;PMS_P1;PMS_P2;Temp;Humidity;BMP_temperature;BMP_pressure;BME280_temperature;BME280_humidity;BME280_pressure;Samples;Min_cycle;Max_cycle;Signal;HPM_P1;HPM_P2
2023/04/10 00:02:21;;;;;;;29.45;18.85;;;;;;;3.57;100.00;101589.28;5003231;28;20038;-73
2023/04/10 00:04:47;;;;;;;29.20;18.20;;;;;;;3.55;100.00;101581.38;5003271;28;20511;-73
2023/04/10 00:07:13;;;;;;;31.00;20.40;;;;;;;3.50;100.00;101578.56;4999939;28;20088;-73
2023/04/10 00:09:38;;;;;;;34.40;20.67;;;;;;;3.50;100.00;101585.53;5002780;28;20042;-73
2023/04/10 00:12:04;;;;;;;28.88;19.05;;;;;;;3.50;100.00;101573.34;4999869;28;20070;-73
2023/04/10 00:14:29;;;;;;;30.60;19.02;;;;;;;3.52;100.00;101581.25;4985370;28;20111;-73
2023/04/10 00:16:54;;;;;;;29.70;19.10;;;;;;;3.49;100.00;101582.03;5002617;28;20109;-73
2023/04/10 00:19:20;;;;;;;28.77;18.30;;;;;;;3.48;100.00;101575.03;5010674;28;20564;-74
2023/04/10 00:21:45;;;;;;;36.15;22.05;;;;;;;3.44;100.00;101586.19;5003991;28;20398;-73
2023/04/10 00:24:10;;;;;;;32.70;20.88;;;;;;;3.38;100.00;101578.13;4992337;28;20037;-73
2023/04/10 00:26:36;;;;;;;32.30;21.17;;;;;;;3.35;100.00;101577.97;5004081;28;20045;-73
2023/04/10 00:29:02;;;;;;;29.38;18.85;;;;;;;3.29;100.00;101577.72;5005941;28;20034;-73
2023/04/10 00:31:28;;;;;;;29.23;18.88;;;;;;;3.22;100.00;101566.19;5004356;28;20041;-73
2023/04/10 00:33:54;;;;;;;28.98;18.42;;;;;;;3.21;100.00;101571.31;5005775;28;20097;-73
2023/04/10 00:36:20;;;;;;;32.38;19.40;;;;;;;3.21;100.00;101566.09;5004550;28;20528;-73
2023/04/10 00:38:45;;;;;;;28.52;18.48;;;;;;;3.23;100.00;101567.06;5008563;28;20069;-73
2023/04/10 00:41:10;;;;;;;31.63;19.80;;;;;;;3.21;100.00;101572.22;4987773;28;20500;-73
2023/04/10 00:43:36;;;;;;;34.70;22.17;;;;;;;3.13;100.00;101575.34;5004674;28;20500;-73
2023/04/10 00:46:03;;;;;;;33.70;21.42;;;;;;;2.92;100.00;101571.00;4987566;28;20034;-73
2023/04/10 00:48:28;;;;;;;36.67;20.98;;;;;;;2.83;100.00;101566.31;5004968;28;20133;-73
2023/04/10 00:50:53;;;;;;;28.63;18.45;;;;;;;2.88;100.00;101568.22;5006088;28;20072;-73
2023/04/10 00:53:19;;;;;;;34.97;21.63;;;;;;;2.88;100.00;101563.88;4996362;28;20037;-73
2023/04/10 00:55:45;;;;;;;27.85;16.98;;;;;;;2.89;100.00;101565.69;5007331;28;20113;-73
2023/04/10 00:58:13;;;;;;;30.27;19.52;;;;;;;2.91;100.00;101564.03;5004318;28;20488;-73
2023/04/10 01:00:39;;;;;;;30.63;20.20;;;;;;;2.86;100.00;101560.34;5005247;28;20049;-73
2023/04/10 01:03:04;;;;;;;31.23;18.83;;;;;;;2.80;100.00;101555.78;5003521;28;20076;-73
2023/04/10 01:05:37;;;;;;;27.58;17.63;;;;;;;2.83;100.00;101566.31;5005661;28;20069;-73
2023/04/10 01:08:16;;;;;;;27.98;17.67;;;;;;;2.82;100.00;101568.84;4985171;28;20034;-73
2023/04/10 01:10:51;;;;;;;33.22;18.92;;;;;;;2.78;100.00;101569.56;4988568;28;20069;-73
2023/04/10 01:13:34;;;;;;;35.70;21.85;;;;;;;2.69;100.00;101574.38;5005921;28;20451;-73
2023/04/10 01:16:14;;;;;;;;;;;;;;;2.60;100.00;101570.56;5005012;28;20459;-74
2023/04/10 01:18:52;;;;;;;29.75;18.60;;;;;;;2.53;100.00;101568.50;5002404;28;20371;-73
2023/04/10 01:21:20;;;;;;;26.45;17.58;;;;;;;2.55;100.00;101569.47;4989273;28;20026;-73
2023/04/10 01:24:13;;;;;;;28.65;16.95;;;;;;;2.61;100.00;101567.09;5006633;28;20034;-73
2023/04/10 01:26:51;;;;;;;;;;;;;;;2.63;100.00;101572.41;5004622;28;20129;-73
2023/04/10 01:29:20;;;;;;;28.13;17.35;;;;;;;2.60;100.00;101567.94;5000998;28;19914;-73
2023/04/10 01:31:59;;;;;;;28.30;18.33;;;;;;;2.59;100.00;101574.00;5006577;28;20030;-73
2023/04/10 01:34:31;;;;;;;34.28;20.67;;;;;;;2.58;100.00;101568.72;4987255;28;20408;-73
2023/04/10 01:37:04;;;;;;;32.33;19.38;;;;;;;2.54;100.00;101562.50;4984876;28;20031;-73
2023/04/10 01:39:31;;;;;;;27.45;19.35;;;;;;;2.55;100.00;101564.25;5002443;28;20042;-73
2023/04/10 01:42:00;;;;;;;32.65;19.00;;;;;;;2.59;100.00;101560.97;4987130;28;20029;-74
2023/04/10 01:44:39;;;;;;;28.58;18.33;;;;;;;2.63;100.00;101560.25;4987193;28;20029;-73
2023/04/10 01:47:06;;;;;;;29.83;17.85;;;;;;;2.65;100.00;101562.94;4986424;28;20493;-73
2023/04/10 01:49:33;;;;;;;30.55;18.70;;;;;;;2.61;100.00;101559.28;4990015;28;20053;-73
2023/04/10 01:52:02;;;;;;;28.55;18.20;;;;;;;2.60;100.00;101567.06;4990061;28;20409;-73
2023/04/10 01:54:31;;;;;;;28.67;18.35;;;;;;;2.59;100.00;101565.25;4988156;28;20125;-73
2023/04/10 01:56:59;;;;;;;28.23;17.58;;;;;;;2.47;100.00;101576.06;4986643;28;20112;-73
2023/04/10 01:59:25;;;;;;;27.08;16.75;;;;;;;2.31;100.00;101571.03;4985574;28;20034;-73
2023/04/10 02:01:56;;;;;;;31.40;19.38;;;;;;;2.26;100.00;101568.22;4985893;28;20030;-73
2023/04/10 02:04:21;;;;;;;32.55;20.67;;;;;;;2.19;100.00;101566.16;5005576;28;20506;-73
2023/04/10 02:07:03;;;;;;;22.60;15.00;;;;;;;2.00;100.00;101567.03;5002630;28;20046;-73
2023/04/10 02:09:53;;;;;;;23.20;14.65;;;;;;;1.98;100.00;101568.69;4990725;28;20038;-73
2023/04/10 02:12:28;;;;;;;28.73;18.02;;;;;;;1.96;100.00;101560.81;5000767;28;20519;-74
2023/04/10 02:14:59;;;;;;;26.40;17.35;;;;;;;1.96;100.00;101565.09;4985459;28;20464;-73
2023/04/10 02:17:28;;;;;;;25.13;16.33;;;;;;;1.97;100.00;101559.09;5004444;28;20475;-73
2023/04/10 02:19:55;;;;;;;27.58;17.17;;;;;;;1.97;100.00;101554.78;5001762;28;20408;-73
2023/04/10 02:22:22;;;;;;;30.70;17.58;;;;;;;1.96;100.00;101557.28;4997732;28;20065;-73
2023/04/10 02:24:48;;;;;;;25.00;15.77;;;;;;;1.91;100.00;101556.19;5001280;28;20062;-73
2023/04/10 02:27:13;;;;;;;24.48;16.20;;;;;;;1.87;100.00;101554.28;4990765;28;20037;-73
2023/04/10 02:29:39;;;;;;;24.05;16.10;;;;;;;1.83;100.00;101554.97;5001046;28;20038;-73
2023/04/10 02:32:05;;;;;;;21.90;14.30;;;;;;;1.80;100.00;101557.44;4986703;28;20450;-73
2023/04/10 02:34:31;;;;;;;21.27;14.68;;;;;;;1.67;100.00;101555.97;5001670;28;20030;-73
2023/04/10 02:36:57;;;;;;;19.17;13.40;;;;;;;1.65;100.00;101570.63;4986411;28;20026;-73
2023/04/10 02:39:23;;;;;;;21.60;13.20;;;;;;;1.65;100.00;101563.72;5003757;28;20034;-73
2023/04/10 02:41:50;;;;;;;25.13;15.25;;;;;;;1.71;100.00;101558.78;5001964;28;20030;-73
2023/04/10 02:44:16;;;;;;;25.17;15.82;;;;;;;1.79;100.00;101556.53;4987142;28;20056;-73
2023/04/10 02:46:42;;;;;;;28.48;17.33;;;;;;;1.81;100.00;101552.31;4985462;28;20053;-73
2023/04/10 02:49:08;;;;;;;27.27;16.35;;;;;;;1.82;100.00;101556.69;4984685;28;20045;-73
2023/04/10 02:51:35;;;;;;;28.27;18.02;;;;;;;1.85;100.00;101555.94;5002788;28;20033;-73
2023/04/10 02:54:00;;;;;;;31.02;19.60;;;;;;;1.78;100.00;101556.47;4986812;28;20489;-73
2023/04/10 02:56:29;;;;;;;35.20;20.95;;;;;;;1.77;100.00;101563.38;5006939;28;20056;-73
2023/04/10 02:58:54;;;;;;;26.73;16.95;;;;;;;1.77;100.00;101557.28;4984094;28;20180;-73
2023/04/10 03:01:21;;;;;;;28.20;17.85;;;;;;;1.79;100.00;101560.88;4985806;28;20416;-73
2023/04/10 03:03:47;;;;;;;29.25;17.85;;;;;;;1.74;100.00;101560.66;4989743;28;20026;-73
2023/04/10 03:06:20;;;;;;;;;;;;;;;1.74;100.00;101569.34;4983480;28;20034;-73
2023/04/10 03:08:46;;;;;;;26.77;16.60;;;;;;;1.62;100.00;101567.88;5002346;28;19917;-73
2023/04/10 03:11:11;;;;;;;25.50;16.15;;;;;;;1.52;100.00;101566.56;4983181;28;20057;-73
2023/04/10 03:13:37;;;;;;;25.33;15.82;;;;;;;1.49;100.00;101564.72;4989919;28;20029;-73
2023/04/10 03:16:02;;;;;;;27.45;15.70;;;;;;;1.49;100.00;101566.41;5003460;28;20404;-73
2023/04/10 03:18:28;;;;;;;27.17;12.27;;;;;;;1.52;100.00;101569.19;4987133;28;20033;-73
2023/04/10 03:20:55;;;;;;;19.60;11.60;;;;;;;1.54;100.00;101562.31;4985198;28;20057;-74
2023/04/10 03:23:20;;;;;;;15.93;10.38;;;;;;;1.60;100.00;101553.91;5001242;28;20488;-73
2023/04/10 03:25:50;;;;;;;18.33;11.27;;;;;;;1.63;100.00;101561.88;4985016;28;20052;-73
2023/04/10 03:28:17;;;;;;;27.10;15.23;;;;;;;1.67;100.00;101551.66;4988340;28;20053;-73
2023/04/10 03:30:42;;;;;;;27.08;15.70;;;;;;;1.68;100.00;101553.44;5003586;28;20026;-73
2023/04/10 03:33:08;;;;;;;21.92;14.32;;;;;;;1.65;100.00;101549.78;4984147;28;20116;-73
2023/04/10 03:35:33;;;;;;;307.20;26.48;;;;;;;1.65;100.00;101552.41;4984710;28;20028;-73
2023/04/10 03:37:58;;;;;;;38.78;17.95;;;;;;;1.61;100.00;101546.19;5003795;28;20042;-73
2023/04/10 03:40:24;;;;;;;30.40;17.52;;;;;;;1.57;100.00;101552.03;5001044;28;20488;-73
2023/04/10 03:42:49;;;;;;;28.83;17.13;;;;;;;1.56;100.00;101557.19;4984824;28;20132;-73
2023/04/10 03:45:14;;;;;;;37.05;19.13;;;;;;;1.54;100.00;101550.19;5001059;28;20038;-73
2023/04/10 03:47:40;;;;;;;36.53;17.25;;;;;;;1.47;100.00;101552.47;5005112;28;20037;-73
2023/04/10 03:50:08;;;;;;;32.85;19.40;;;;;;;1.43;100.00;101560.94;4986470;28;20029;-74
2023/04/10 03:52:41;;;;;;;44.20;22.23;;;;;;;1.34;100.00;101557.88;4983855;28;20432;-73
2023/04/10 03:55:11;;;;;;;43.80;19.70;;;;;;;1.24;100.00;101562.66;4988159;28;20160;-74
2023/04/10 03:57:36;;;;;;;38.65;18.50;;;;;;;1.25;100.00;101555.72;4988470;28;20061;-73
2023/04/10 04:00:04;;;;;;;46.97;20.65;;;;;;;1.36;100.00;101562.31;4987122;28;20038;-73
2023/04/10 04:02:45;;;;;;;58.42;18.15;;;;;;;1.44;100.00;101563.63;5003203;28;20038;-73
2023/04/10 04:05:13;;;;;;;47.53;19.95;;;;;;;1.41;100.00;101563.44;4982066;28;20038;-74
2023/04/10 04:07:41;;;;;;;34.42;17.73;;;;;;;1.51;100.00;101576.06;4985647;28;20484;-73
2023/04/10 04:10:27;;;;;;;39.80;19.05;;;;;;;1.65;100.00;101573.22;4990379;28;20656;-73
2023/04/10 04:13:12;;;;;;;37.63;20.55;;;;;;;1.69;100.00;101583.84;5001313;28;20046;-73
2023/04/10 04:16:04;;;;;;;59.65;25.17;;;;;;;1.70;100.00;101588.25;4984021;28;20030;-73
2023/04/10 04:18:43;;;;;;;54.28;23.35;;;;;;;1.70;100.00;101588.25;4986798;28;20030;-73
2023/04/10 04:21:26;;;;;;;;;;;;;;;1.73;100.00;101587.50;4982452;28;20042;-74
2023/04/10 04:24:06;;;;;;;45.33;19.25;;;;;;;1.88;100.00;101589.91;4988621;28;19913;-74
2023/04/10 04:26:55;;;;;;;143.27;30.05;;;;;;;1.92;100.00;101586.63;4982070;28;20088;-73
2023/04/10 04:29:32;;;;;;;89.85;25.00;;;;;;;1.90;100.00;101585.66;4995459;28;20447;-73
2023/04/10 04:32:05;;;;;;;51.58;22.73;;;;;;;1.95;100.00;101586.78;4983014;28;20030;-73
2023/04/10 04:34:39;;;;;;;213.32;36.05;;;;;;;1.91;100.00;101587.44;4985667;28;20037;-73
2023/04/10 04:37:19;;;;;;;171.45;34.90;;;;;;;1.78;100.00;101585.97;5000198;28;20034;-73
2023/04/10 04:40:03;;;;;;;83.25;27.70;;;;;;;1.88;100.00;101582.97;4982342;28;20038;-73
2023/04/10 04:42:52;;;;;;;80.88;25.13;;;;;;;2.03;100.00;101585.41;4993690;28;20038;-73
2023/04/10 04:45:24;;;;;;;56.30;24.35;;;;;;;2.16;100.00;101585.13;4989589;28;20433;-73
2023/04/10 04:48:19;;;;;;;45.90;21.80;;;;;;;2.26;100.00;101580.34;4994008;28;20524;-73
2023/04/10 04:50:55;;;;;;;36.78;19.58;;;;;;;2.27;100.00;101585.59;4982695;28;20134;-73
2023/04/10 04:53:36;;;;;;;32.20;18.65;;;;;;;2.32;100.00;101584.09;4985051;28;20081;-74
2023/04/10 04:56:20;;;;;;;33.33;16.90;;;;;;;2.34;100.00;101577.25;5003297;28;20037;-73
2023/04/10 04:59:03;;;;;;;26.20;15.07;;;;;;;2.26;100.00;101586.44;4983473;28;20116;-73
2023/04/10 05:01:46;;;;;;;32.58;17.17;;;;;;;2.28;100.00;101586.47;5003413;28;20055;-73
2023/04/10 05:04:31;;;;;;;29.77;16.23;;;;;;;2.19;100.00;101589.59;5009647;28;20139;-73
2023/04/10 05:07:16;;;;;;;31.48;16.80;;;;;;;2.08;100.00;101588.22;4992857;28;20100;-73
2023/04/10 05:10:04;;;;;;;29.77;15.80;;;;;;;2.21;100.00;101587.06;4986001;28;20125;-74
2023/04/10 05:12:48;;;;;;;46.95;17.65;;;;;;;2.17;100.00;101584.31;5002682;28;20045;-73
2023/04/10 05:15:21;;;;;;;36.28;17.70;;;;;;;2.17;100.00;101592.13;5005291;28;20045;-73
2023/04/10 05:18:07;;;;;;;209.07;27.17;;;;;;;2.30;100.00;101592.66;4989295;28;20044;-73
2023/04/10 05:20:51;;;;;;;33.70;15.15;;;;;;;2.31;100.00;101599.69;5004866;28;20053;-73
2023/04/10 05:26:27;;;;;;;39.00;19.88;;;;;;;2.44;100.00;101591.56;4983332;28;20108;-75
2023/04/10 05:29:10;;;;;;;34.72;17.77;;;;;;;2.47;100.00;101591.69;4993949;28;20034;-75
2023/04/10 05:31:55;;;;;;;28.45;18.30;;;;;;;2.57;100.00;101599.09;4977083;28;20093;-75
2023/04/10 05:34:39;;;;;;;36.42;18.98;;;;;;;2.64;100.00;101601.13;4974112;28;20058;-75
2023/04/10 05:37:11;;;;;;;40.25;20.38;;;;;;;2.71;100.00;101594.47;4961106;28;20480;-76
2023/04/10 05:39:42;;;;;;;40.25;21.42;;;;;;;2.82;100.00;101597.53;4958111;28;20038;-75
2023/04/10 05:42:27;;;;;;;45.20;20.73;;;;;;;2.89;100.00;101596.97;4949473;28;20050;-77
2023/04/10 05:45:19;;;;;;;33.60;19.80;;;;;;;2.91;100.00;101597.00;4970667;28;20053;-77
2023/04/10 05:48:03;;;;;;;30.05;18.75;;;;;;;2.91;100.00;101600.53;4974749;28;20105;-77
2023/04/10 05:50:47;;;;;;;29.60;17.85;;;;;;;3.06;100.00;101589.84;4974347;28;20054;-77
2023/04/10 05:53:30;;;;;;;22.95;15.80;;;;;;;3.23;100.00;101603.59;4973180;28;20049;-78
2023/04/10 05:56:03;;;;;;;24.98;16.77;;;;;;;3.37;100.00;101601.53;4975510;28;20035;-77
2023/04/10 05:58:46;;;;;;;22.52;15.30;;;;;;;3.47;100.00;101596.72;4956988;28;20031;-77
2023/04/10 06:01:38;;;;;;;22.23;14.90;;;;;;;3.60;100.00;101594.63;4954936;28;20050;-77
2023/04/10 06:04:03;;;;;;;21.23;13.93;;;;;;;3.70;100.00;101597.63;4957013;28;20035;-77
2023/04/10 06:06:29;;;;;;;19.27;14.23;;;;;;;3.79;100.00;101602.31;4964393;28;20567;-77
2023/04/10 06:08:55;;;;;;;19.92;13.30;;;;;;;3.88;100.00;101601.81;4962067;28;20031;-78
2023/04/10 06:11:21;;;;;;;17.45;13.35;;;;;;;3.96;100.00;101602.97;4974250;28;20042;-77
2023/04/10 06:13:50;;;;;;;17.27;12.63;;;;;;;4.09;100.00;101591.28;4974866;28;20034;-77
2023/04/10 06:16:16;;;;;;;18.20;13.02;;;;;;;4.22;100.00;101593.50;4972942;28;20046;-77
2023/04/10 06:18:43;;;;;;;18.77;13.18;;;;;;;4.29;100.00;101587.63;4962817;28;20867;-78
2023/04/10 06:21:08;;;;;;;18.75;14.07;;;;;;;4.37;100.00;101582.69;4947468;28;20031;-77
2023/04/10 06:23:34;;;;;;;18.20;13.45;;;;;;;4.41;100.00;101583.72;4956498;28;20070;-77
2023/04/10 06:26:00;;;;;;;16.52;13.00;;;;;;;4.44;100.00;101587.31;4965641;28;20031;-78
2023/04/10 06:28:25;;;;;;;16.65;12.77;;;;;;;4.56;100.00;101584.25;4956477;28;20562;-77
2023/04/10 06:30:55;;;;;;;15.85;12.05;;;;;;;4.62;100.00;101581.84;4956709;28;20027;-77
2023/04/10 06:33:28;;;;;;;18.42;13.05;;;;;;;4.69;100.00;101573.38;4959339;28;20045;-77
2023/04/10 06:35:53;;;;;;;16.52;11.73;;;;;;;4.84;100.00;101580.84;4957093;28;20034;-77
2023/04/10 06:38:19;;;;;;;20.63;15.25;;;;;;;4.93;100.00;101577.66;4956379;28;20054;-77
2023/04/10 06:40:44;;;;;;;22.10;16.38;;;;;;;5.01;100.00;101579.69;4956021;28;20039;-77
2023/04/10 06:43:10;;;;;;;23.92;17.05;;;;;;;5.13;100.00;101580.94;4956257;28;20066;-78
2023/04/10 06:45:37;;;;;;;24.73;17.30;;;;;;;5.26;100.00;101576.13;4963407;28;20035;-77
2023/04/10 06:48:03;;;;;;;28.52;20.08;;;;;;;5.42;100.00;101582.78;4964609;28;20043;-77
2023/04/10 06:50:28;;;;;;;25.83;18.52;;;;;;;5.56;100.00;101580.59;4966702;28;20069;-77
2023/04/10 06:52:55;;;;;;;25.70;19.25;;;;;;;5.69;100.00;101577.50;4965869;28;20074;-77
2023/04/10 06:55:20;;;;;;;26.10;18.05;;;;;;;5.87;100.00;101573.66;4964238;28;20047;-78
2023/04/10 06:57:46;;;;;;;26.02;18.58;;;;;;;6.04;100.00;101574.19;4971174;28;20035;-77
2023/04/10 07:00:11;;;;;;;29.40;19.83;;;;;;;6.12;100.00;101568.31;4955663;28;20039;-77
2023/04/10 07:02:37;;;;;;;32.53;21.45;;;;;;;6.21;100.00;101570.31;4972904;28;20043;-77
2023/04/10 07:05:02;;;;;;;31.58;22.67;;;;;;;6.26;100.00;101568.72;4963764;28;20134;-77
2023/04/10 07:07:28;;;;;;;29.13;20.52;;;;;;;6.42;100.00;101563.88;4971660;28;20031;-77
2023/04/10 07:09:53;;;;;;;31.05;21.67;;;;;;;6.53;100.00;101559.81;4972767;28;20508;-78
2023/04/10 07:12:18;;;;;;;26.90;19.80;;;;;;;6.72;100.00;101566.44;4963258;28;20536;-78
2023/04/10 07:14:44;;;;;;;28.27;20.67;;;;;;;6.88;100.00;101560.72;4963732;28;20035;-77
2023/04/10 07:17:09;;;;;;;29.95;20.60;;;;;;;7.02;100.00;101559.34;4973092;28;20031;-77
2023/04/10 07:19:36;;;;;;;29.02;20.80;;;;;;;7.17;100.00;101563.19;4972582;28;20050;-78
2023/04/10 07:22:02;;;;;;;26.98;19.10;;;;;;;7.31;100.00;101564.41;4962612;28;20532;-77
2023/04/10 07:24:27;;;;;;;26.40;18.98;;;;;;;7.43;100.00;101561.19;4970855;28;20043;-77
2023/04/10 07:26:52;;;;;;;25.48;18.42;;;;;;;7.52;100.00;101553.53;4972920;28;20042;-78
2023/04/10 07:29:18;;;;;;;27.92;18.98;;;;;;;7.62;100.00;101554.59;4965875;28;20038;-78
2023/04/10 07:31:43;;;;;;;26.50;18.55;;;;;;;7.73;100.00;101552.19;4962091;28;20085;-77
2023/04/10 07:34:10;;;;;;;27.52;18.83;;;;;;;7.86;100.00;101549.00;4946815;28;20591;-78
2023/04/10 07:36:35;;;;;;;28.05;20.33;;;;;;;7.93;100.00;101542.13;4971406;28;20038;-77
2023/04/10 07:39:00;;;;;;;26.38;19.17;;;;;;;7.93;100.00;101544.75;4972467;28;20053;-77
2023/04/10 07:41:26;;;;;;;26.63;18.85;;;;;;;8.08;100.00;101547.69;4971149;28;20031;-78
2023/04/10 07:43:51;;;;;;;26.05;18.88;;;;;;;8.17;100.00;101544.34;4970014;28;20608;-78
2023/04/10 07:46:16;;;;;;;28.77;20.35;;;;;;;8.24;100.00;101547.16;4961347;28;20142;-77
2023/04/10 07:48:43;;;;;;;27.58;19.35;;;;;;;8.31;100.00;101541.16;4976907;28;20146;-78
2023/04/10 07:51:08;;;;;;;29.30;20.98;;;;;;;8.44;100.00;101542.31;4964767;28;20042;-76
2023/04/10 07:53:35;;;;;;;31.73;23.02;;;;;;;8.55;100.00;101546.03;4972276;28;20035;-76
2023/04/10 07:56:01;;;;;;;28.88;20.85;;;;;;;8.63;100.00;101546.16;4971423;28;20035;-76
2023/04/10 07:58:26;;;;;;;31.55;22.75;;;;;;;8.76;100.00;101548.16;4964523;28;20038;-76
2023/04/10 08:00:52;;;;;;;28.88;20.90;;;;;;;8.90;100.00;101552.75;4964640;28;20089;-78
2023/04/10 08:03:17;;;;;;;28.10;20.70;;;;;;;8.95;100.00;101537.94;4972187;28;20063;-78
2023/04/10 08:05:42;;;;;;;29.15;21.70;;;;;;;9.07;100.00;101546.03;4954926;28;20034;-75
2023/04/10 08:08:08;;;;;;;32.15;22.52;;;;;;;9.16;100.00;101540.91;4963968;28;20039;-75
2023/04/10 08:10:36;;;;;;;29.48;22.45;;;;;;;9.20;100.00;101540.09;4961248;28;20042;-75
2023/04/10 08:13:02;;;;;;;35.13;24.52;;;;;;;9.31;100.00;101542.03;4972170;28;20072;-76
2023/04/10 08:15:27;;;;;;;32.55;23.02;;;;;;;9.44;100.00;101538.69;4963315;28;20433;-75
2023/04/10 08:17:52;;;;;;;32.95;22.85;;;;;;;9.51;100.00;101530.03;4966363;28;20125;-75
2023/04/10 08:20:18;;;;;;;28.23;20.70;;;;;;;9.69;100.00;101539.03;4971914;28;20434;-75
2023/04/10 08:22:43;;;;;;;27.77;20.33;;;;;;;9.85;100.00;101538.38;4964377;28;20387;-75
2023/04/10 08:25:09;;;;;;;32.10;22.77;;;;;;;9.95;100.00;101534.09;4971930;28;20038;-75
2023/04/10 08:27:34;;;;;;;31.30;22.52;;;;;;;10.02;100.00;101535.97;4962844;28;20113;-75
2023/04/10 08:29:59;;;;;;;32.67;23.77;;;;;;;10.08;100.00;101531.63;4962120;28;20494;-75
2023/04/10 08:32:27;;;;;;;30.23;21.95;;;;;;;10.17;100.00;101522.06;4971955;28;20046;-75
2023/04/10 08:34:52;;;;;;;29.13;22.42;;;;;;;10.26;100.00;101530.06;4971902;28;20053;-75
2023/04/10 08:37:20;;;;;;;29.40;20.52;;;;;;;10.45;100.00;101521.53;4973523;28;20031;-75
2023/04/10 08:39:45;;;;;;;29.65;21.42;;;;;;;10.61;99.16;101513.75;4965282;28;20046;-75
2023/04/10 08:42:11;;;;;;;30.60;21.73;;;;;;;10.77;99.13;101522.69;4966897;28;20130;-75
2023/04/10 08:44:36;;;;;;;30.73;21.27;;;;;;;10.92;98.09;101521.06;4975534;28;20186;-76
2023/04/10 08:47:02;;;;;;;28.63;20.35;;;;;;;11.03;97.67;101513.25;4975506;28;20093;-75
2023/04/10 08:49:50;;;;;;;27.38;20.48;;;;;;;11.22;96.52;101508.09;4967681;28;20106;-75
2023/04/10 08:52:20;;;;;;;27.13;20.55;;;;;;;11.34;94.90;101506.41;4973707;28;20409;-75
2023/04/10 08:54:49;;;;;;;31.10;22.63;;;;;;;11.38;93.76;101500.25;4975548;28;20516;-75
2023/04/10 08:57:19;;;;;;;28.35;21.48;;;;;;;11.56;94.09;101501.25;4975347;28;20039;-76
2023/04/10 08:59:50;;;;;;;29.25;21.27;;;;;;;11.71;93.38;101503.06;4958247;28;20374;-78
2023/04/10 09:02:16;;;;;;;26.17;19.95;;;;;;;11.78;92.91;101497.81;4975584;28;20556;-78
2023/04/10 09:04:47;;;;;;;28.40;21.00;;;;;;;11.89;92.26;101502.31;4966350;28;20118;-78
2023/04/10 09:07:13;;;;;;;26.88;20.88;;;;;;;11.96;91.17;101489.09;4973526;28;20497;-78
2023/04/10 09:09:39;;;;;;;25.88;18.88;;;;;;;12.12;91.67;101495.31;4974736;28;20049;-78
2023/04/10 09:12:05;;;;;;;29.33;21.75;;;;;;;12.00;87.47;101493.53;4975375;28;20250;-77
2023/04/10 09:14:33;;;;;;;26.38;19.90;;;;;;;12.11;88.75;101482.09;4965089;28;20409;-77
2023/04/10 09:17:21;;;;;;;24.23;18.20;;;;;;;12.26;86.00;101477.75;4966641;28;20513;-79
2023/04/10 09:19:48;;;;;;;24.63;18.30;;;;;;;12.40;86.61;101468.94;4973180;28;20042;-78
2023/04/10 09:22:15;;;;;;;23.02;18.05;;;;;;;12.55;85.25;101474.25;4975052;28;20034;-78
2023/04/10 09:24:45;;;;;;;21.27;17.48;;;;;;;12.67;85.05;101468.94;4974903;28;20090;-78
2023/04/10 09:27:27;;;;;;;25.98;19.52;;;;;;;12.82;84.09;101464.53;4975085;28;20039;-79
2023/04/10 09:29:52;;;;;;;25.63;19.87;;;;;;;12.96;85.53;101454.78;4972490;28;20037;-78
2023/04/10 09:32:41;;;;;;;24.17;18.15;;;;;;;13.20;83.70;101453.88;4973910;28;20114;-78
2023/04/10 09:35:08;;;;;;;24.58;19.35;;;;;;;13.24;82.63;101444.16;4972299;28;20049;-78
2023/04/10 09:37:35;;;;;;;25.27;19.40;;;;;;;13.32;80.53;101437.09;4965484;28;20501;-78
2023/04/10 09:40:01;;;;;;;23.52;18.25;;;;;;;13.36;81.29;101438.81;4965529;28;20031;-78
2023/04/10 09:42:36;;;;;;;31.85;23.85;;;;;;;13.30;78.18;101434.44;4974827;28;20041;-78
2023/04/10 09:45:02;;;;;;;26.77;20.10;;;;;;;13.47;80.43;101434.41;4966325;28;20046;-78
2023/04/10 09:47:28;;;;;;;26.20;19.08;;;;;;;13.51;76.96;101433.47;4974427;28;20066;-76
2023/04/10 09:49:57;;;;;;;25.15;18.38;;;;;;;13.67;77.66;101428.13;4974348;28;20390;-76
2023/04/10 09:52:28;;;;;;;25.75;19.67;;;;;;;13.80;76.31;101424.50;4971733;28;20117;-76
2023/04/10 09:54:58;;;;;;;25.73;19.55;;;;;;;13.91;75.38;101427.09;4974472;28;20076;-76
2023/04/10 09:57:26;;;;;;;26.67;20.30;;;;;;;13.94;73.86;101419.16;4967138;28;20042;-76
2023/04/10 09:59:54;;;;;;;22.35;17.58;;;;;;;13.93;75.25;101412.94;4974062;28;20042;-76
2023/04/10 10:02:21;;;;;;;24.52;18.55;;;;;;;14.04;74.50;101412.88;4966725;28;20732;-76
2023/04/10 10:04:48;;;;;;;23.50;17.92;;;;;;;14.15;75.05;101404.84;4974327;28;20042;-78
2023/04/10 10:07:15;;;;;;;24.00;18.95;;;;;;;14.28;74.65;101410.94;4962088;28;20050;-78
2023/04/10 10:09:42;;;;;;;24.75;18.52;;;;;;;14.38;75.08;101394.03;4966031;28;20113;-78
2023/04/10 10:12:10;;;;;;;26.27;19.70;;;;;;;14.43;73.23;101395.75;4974216;28;20054;-78
2023/04/10 10:14:46;;;;;;;23.60;19.25;;;;;;;14.51;72.19;101386.84;4973038;28;20473;-78
2023/04/10 10:17:16;;;;;;;23.90;18.75;;;;;;;14.63;72.23;101381.47;4973821;28;20501;-79
2023/04/10 10:19:55;;;;;;;23.90;18.25;;;;;;;14.57;71.87;101376.22;4973896;28;20035;-78
2023/04/10 10:22:24;;;;;;;24.90;19.35;;;;;;;14.75;71.88;101372.47;4970931;28;20089;-78
2023/04/10 10:24:55;;;;;;;23.30;17.77;;;;;;;14.88;71.89;101372.38;4973661;28;20391;-78
2023/04/10 10:27:22;;;;;;;24.15;17.55;;;;;;;15.10;71.71;101366.81;4973297;28;20046;-78
2023/04/10 10:29:48;;;;;;;24.38;18.70;;;;;;;15.23;71.46;101365.75;4967610;28;20050;-78
2023/04/10 10:32:16;;;;;;;24.20;18.17;;;;;;;15.39;70.10;101363.78;4962430;28;20070;-79
2023/04/10 10:34:43;;;;;;;21.30;17.50;;;;;;;15.41;70.10;101356.69;4966262;28;20118;-78
2023/04/10 10:37:10;;;;;;;23.05;17.55;;;;;;;15.45;69.67;101352.19;4973656;28;20378;-78
2023/04/10 10:40:13;;;;;;;24.25;18.63;;;;;;;15.57;67.27;101354.69;4962325;28;20043;-78
2023/04/10 10:42:49;;;;;;;23.00;17.25;;;;;;;15.65;67.54;101350.16;4973590;28;20035;-78
2023/04/10 10:45:19;;;;;;;20.77;16.95;;;;;;;15.77;68.42;101342.03;4963809;28;20035;-78
2023/04/10 10:47:49;;;;;;;21.35;16.65;;;;;;;15.99;68.60;101339.03;4973479;28;20451;-78
2023/04/10 10:50:15;;;;;;;24.52;18.52;;;;;;;16.02;66.85;101331.00;4961985;28;20126;-78
2023/04/10 10:52:48;;;;;;;22.42;17.77;;;;;;;15.90;65.16;101340.06;4965311;28;20117;-78
2023/04/10 10:55:38;;;;;;;24.55;20.52;;;;;;;15.85;64.07;101325.94;4973443;28;20182;-78
2023/04/10 10:58:05;;;;;;;24.38;18.50;;;;;;;16.05;66.12;101322.94;4973250;28;20560;-78
2023/04/10 11:00:49;;;;;;;21.17;16.75;;;;;;;16.41;66.81;101315.25;4964648;28;20112;-78
2023/04/10 11:03:14;;;;;;;20.35;15.68;;;;;;;16.67;66.78;101316.56;4973204;28;20046;-78
2023/04/10 11:05:56;;;;;;;21.80;16.48;;;;;;;16.75;61.04;101304.84;4955920;28;20042;-78
2023/04/10 11:08:46;;;;;;;19.60;15.63;;;;;;;16.84;61.53;101290.47;4970985;28;20126;-78
2023/04/10 11:11:26;;;;;;;19.45;15.38;;;;;;;16.99;61.56;101291.97;4970522;28;20047;-78
2023/04/10 11:13:51;;;;;;;16.30;13.32;;;;;;;17.15;63.14;101293.38;4973068;28;20511;-78
2023/04/10 11:16:18;;;;;;;18.50;13.88;;;;;;;17.37;61.54;101283.16;4962095;28;20114;-78
2023/04/10 11:18:43;;;;;;;18.35;14.02;;;;;;;17.51;61.98;101282.81;4964043;28;20564;-76
2023/04/10 11:21:10;;;;;;;15.85;11.90;;;;;;;17.72;60.67;101273.44;4955466;28;20042;-76
2023/04/10 11:23:37;;;;;;;15.80;12.88;;;;;;;17.75;57.43;101258.22;4969325;28;20046;-76
2023/04/10 11:28:30;;;;;;;15.88;12.23;;;;;;;17.80;57.01;101251.94;4969859;28;20065;-76
2023/04/10 11:31:13;;;;;;;16.88;12.77;;;;;;;17.73;54.52;101245.81;4967881;28;20493;-76